Home   Weather   USA   State College   Past weeks
Flag for USA

Past Weather in State College, Pennsylvania, USA — October 2023

Currently: 40 °F. Fog. (Weather station: University Park Airport, USA). See more current weather

October 2023 Weather in State College — Graph

°F

High & Low Weather Summary for October 2023

 TemperatureHumidityPressure
High81 °F (Oct 3, 3:53 pm)100% (Oct 1, 12:15 am)30.35 "Hg (Oct 1, 12:15 am)
Low32 °F (Oct 31, 5:25 am)27% (Oct 26, 12:53 pm)29.45 "Hg (Oct 21, 3:21 am)
Average53 °F78%29.99 "Hg
* Reported Oct 1 12:15 am — Oct 31 11:42 pm, State College. Weather by CustomWeather, © 2024

Note: Actual official high and low records may vary slightly from our data, if they occured in-between our weather recording intervals... More about our weather records

State College Weather History for October 1, 2023

Scroll right to see more
 ConditionsComfort  
Time TempWeatherWind HumidityBarometerVisibility
12:15 am
Sun, Oct 1
58 °FPassing clouds.No wind100%30.27 "Hg10 mi
12:35 am58 °FPassing clouds.No wind100%30.27 "Hg10 mi
12:55 am57 °FFog.No wind100%30.27 "Hg5 mi
1:15 am56 °FFog.No wind100%30.27 "Hg1 mi
1:55 am56 °FPassing clouds.No wind99%30.27 "Hg10 mi
2:15 am55 °FFog.No wind99%30.28 "Hg3 mi
2:35 am55 °FFog.No wind99%30.28 "Hg0 mi
3:15 am54 °FFog.No wind100%30.28 "Hg0 mi
3:55 am55 °FFog.No wind99%30.28 "Hg4 mi
4:15 am54 °FFog.No wind100%30.28 "Hg2 mi
4:55 am51 °FFog.No wind100%30.29 "Hg0 mi
5:15 am51 °FFog.No wind99%30.29 "Hg0 mi
5:35 am51 °FFog.No wind100%30.29 "Hg0 mi
5:53 am52 °FFog.No wind100%30.29 "Hg1 mi
6:18 am50 °FFog.No wind100%30.30 "Hg0 mi
8:00 am50 °FFog.No wind100%30.32 "Hg1 mi
9:03 am54 °FFog.No wind100%30.34 "Hg1 mi
9:15 am54 °FFog.No wind100%30.34 "Hg1 mi
9:36 am55 °FFog.No wind100%30.34 "Hg1 mi
9:53 am57 °FScattered clouds.No wind100%30.34 "Hg10 mi
10:53 am61 °FSunny.No wind94%30.33 "Hg10 mi
11:53 am68 °FSunny.5 mph69%30.32 "Hg10 mi
1:15 pm73 °FPassing clouds.12 mph57%30.30 "Hg10 mi
1:53 pm73 °FPassing clouds.9 mph57%30.29 "Hg10 mi
2:53 pm77 °FScattered clouds.5 mph51%30.27 "Hg10 mi
3:53 pm77 °FBroken clouds.5 mph51%30.26 "Hg10 mi
4:53 pm77 °FBroken clouds.7 mph51%30.24 "Hg10 mi
5:53 pm77 °FScattered clouds.7 mph51%30.25 "Hg10 mi
6:53 pm73 °FPassing clouds.3 mph57%30.25 "Hg10 mi
8:53 pm66 °FPassing clouds.No wind78%30.25 "Hg10 mi
10:15 pm62 °FClear.No wind92%30.26 "Hg10 mi
10:55 pm60 °FClear.No wind100%30.26 "Hg10 mi
11:15 pm61 °FClear.No wind100%30.26 "Hg10 mi
11:35 pm60 °FClear.5 mph100%30.25 "Hg10 mi
11:55 pm60 °FClear.No wind100%30.26 "Hg10 mi
Weather by CustomWeather, © 2024

See weather overview